createdAt,value
2019-05-11T00:00:48.353Z,1.92
2019-05-11T00:04:52.904Z,1.90
2019-05-11T00:08:57.436Z,2.12
2019-05-11T00:13:01.993Z,1.90
2019-05-11T00:17:06.581Z,2.30
2019-05-11T00:21:11.101Z,2.10
2019-05-11T00:25:15.693Z,2.00
2019-05-11T00:29:20.250Z,1.90
2019-05-11T00:33:24.775Z,1.90
2019-05-11T00:37:29.313Z,1.80
2019-05-11T00:41:33.838Z,1.70
2019-05-11T00:45:38.365Z,1.80
2019-05-11T00:49:42.891Z,1.67
2019-05-11T00:53:47.546Z,2.20
2019-05-11T00:57:52.065Z,1.75
2019-05-11T01:01:56.590Z,2.02
2019-05-11T01:06:01.135Z,1.60
2019-05-11T01:10:22.886Z,1.80
2019-05-11T01:14:15.798Z,1.87
2019-05-11T01:18:20.330Z,2.00
2019-05-11T01:22:24.855Z,1.98
2019-05-11T01:26:29.391Z,1.57
2019-05-11T01:30:33.909Z,1.80
2019-05-11T01:34:38.471Z,1.80
2019-05-11T01:38:43.030Z,2.10
2019-05-11T01:42:47.561Z,1.70
2019-05-11T01:46:52.092Z,2.10
2019-05-11T01:50:56.620Z,1.82
2019-05-11T01:55:01.149Z,1.92
2019-05-11T01:59:05.665Z,1.85
2019-05-11T02:03:11.031Z,1.93
2019-05-11T02:07:15.574Z,2.00
2019-05-11T02:11:20.170Z,2.20
2019-05-11T02:15:24.702Z,1.95
2019-05-11T02:19:29.217Z,2.10
2019-05-11T02:23:33.755Z,1.98
2019-05-11T02:27:38.291Z,1.90
2019-05-11T02:31:42.817Z,2.10
2019-05-11T02:35:47.338Z,2.20
2019-05-11T02:39:51.867Z,2.00
2019-05-11T02:43:56.389Z,2.17
2019-05-11T02:48:00.921Z,2.22
2019-05-11T02:52:05.634Z,2.30
2019-05-11T02:56:10.366Z,2.47
2019-05-11T03:00:17.954Z,2.37
2019-05-11T03:04:22.486Z,2.20
2019-05-11T03:08:27.026Z,2.02
2019-05-11T03:12:31.549Z,2.33
2019-05-11T03:16:36.398Z,2.30
2019-05-11T03:20:40.970Z,2.30
2019-05-11T03:24:45.498Z,2.60
2019-05-11T03:28:52.092Z,2.37
2019-05-11T03:32:56.627Z,2.70
2019-05-11T03:37:01.157Z,2.08
2019-05-11T03:41:05.673Z,2.47
2019-05-11T03:45:10.372Z,2.50
2019-05-11T03:49:14.889Z,2.77
2019-05-11T03:53:19.417Z,2.70
2019-05-11T03:57:23.967Z,2.70
2019-05-11T04:01:28.478Z,2.50
2019-05-11T04:05:33.004Z,2.58
2019-05-11T04:09:37.537Z,2.45
2019-05-11T04:13:42.073Z,2.90
2019-05-11T04:17:46.615Z,2.90
2019-05-11T04:21:51.136Z,2.70
2019-05-11T04:25:55.718Z,2.50
2019-05-11T04:30:00.602Z,2.58
2019-05-11T04:34:05.186Z,2.55
2019-05-11T04:38:10.525Z,2.50
2019-05-11T04:42:15.050Z,2.60
2019-05-11T04:46:19.577Z,2.52
2019-05-11T04:50:24.116Z,2.37
2019-05-11T04:54:28.736Z,2.80
2019-05-11T04:58:33.305Z,2.77
2019-05-11T05:02:37.830Z,2.40
2019-05-11T05:06:42.364Z,2.30
2019-05-11T05:10:46.961Z,2.45
2019-05-11T05:14:51.529Z,2.40
2019-05-11T05:18:56.042Z,2.35
2019-05-11T05:23:00.573Z,2.33
2019-05-11T05:27:05.110Z,2.10
2019-05-11T05:31:09.633Z,2.00
2019-05-11T05:35:14.177Z,1.82
2019-05-11T05:39:18.697Z,1.90
2019-05-11T05:43:27.924Z,1.98
2019-05-11T05:51:33.131Z,1.90
2019-05-11T05:55:37.658Z,2.02
2019-05-11T05:59:42.186Z,2.20
2019-05-11T06:03:46.731Z,1.90
2019-05-11T06:07:51.262Z,2.15
2019-05-11T06:11:55.969Z,2.40
2019-05-11T06:16:00.602Z,1.87
2019-05-11T06:20:06.030Z,1.92
2019-05-11T06:24:11.142Z,2.17
2019-05-11T06:28:15.689Z,1.80
2019-05-11T06:32:20.381Z,1.90
2019-05-11T06:36:24.979Z,1.90
2019-05-11T06:40:29.494Z,1.90
2019-05-11T06:44:34.037Z,1.72
2019-05-11T06:48:38.588Z,1.60
2019-05-11T06:52:43.117Z,1.60
2019-05-11T06:56:47.651Z,1.62
2019-05-11T07:00:52.177Z,1.45
2019-05-11T07:04:56.697Z,1.77
2019-05-11T07:09:01.286Z,1.77
2019-05-11T07:13:05.802Z,1.80
2019-05-11T07:17:10.339Z,1.65
2019-05-11T07:21:14.845Z,2.30
2019-05-11T07:25:19.370Z,2.35
2019-05-11T07:29:23.976Z,2.98
2019-05-11T07:33:28.772Z,2.95
2019-05-11T07:37:33.410Z,3.55
2019-05-11T07:41:38.761Z,2.87
2019-05-11T07:45:43.802Z,3.10
2019-05-11T07:49:48.952Z,3.83
2019-05-11T07:53:53.597Z,3.37
2019-05-11T07:57:58.632Z,2.95
2019-05-11T08:02:03.603Z,3.57
2019-05-11T08:06:08.854Z,3.08
2019-05-11T08:10:13.553Z,2.90
2019-05-11T08:14:18.405Z,2.95
2019-05-11T08:18:22.992Z,2.83
2019-05-11T08:22:28.443Z,2.70
2019-05-11T08:26:33.498Z,3.50
2019-05-11T08:30:38.235Z,2.75
2019-05-11T08:34:42.938Z,2.85
2019-05-11T08:38:48.245Z,2.62
2019-05-11T08:42:53.269Z,3.55
2019-05-11T08:46:58.357Z,3.70
2019-05-11T08:51:03.264Z,2.80
2019-05-11T08:55:08.580Z,3.13
2019-05-11T08:59:13.303Z,3.10
2019-05-11T09:03:18.030Z,3.17
2019-05-11T09:07:22.649Z,2.67
2019-05-11T09:11:28.395Z,2.62
2019-05-11T09:15:37.341Z,2.20
2019-05-11T09:23:43.461Z,3.60
2019-05-11T09:27:48.591Z,3.27
2019-05-11T09:31:53.449Z,3.17
2019-05-11T09:35:58.569Z,2.60
2019-05-11T09:40:03.789Z,3.20
2019-05-11T09:44:09.148Z,2.43
2019-05-11T09:48:13.806Z,2.30
2019-05-11T09:52:18.520Z,2.27
2019-05-11T09:56:23.158Z,2.20
2019-05-11T10:00:29.357Z,1.82
2019-05-11T10:08:38.216Z,2.20
2019-05-11T10:12:42.837Z,2.57
2019-05-11T10:16:49.150Z,2.80
2019-05-11T10:24:58.278Z,2.67
2019-05-11T10:29:03.269Z,3.08
2019-05-11T10:33:08.357Z,3.60
2019-05-11T10:37:13.277Z,3.20
2019-05-11T10:41:18.451Z,2.60
2019-05-11T10:45:22.992Z,3.10
2019-05-11T10:49:28.926Z,2.95
2019-05-11T10:53:33.613Z,2.92
2019-05-11T10:57:38.815Z,2.90
2019-05-11T11:01:48.344Z,2.57
2019-05-11T11:05:52.625Z,2.65
2019-05-11T11:09:58.051Z,3.30
2019-05-11T11:14:03.492Z,2.27
2019-05-11T11:18:08.692Z,2.52
2019-05-11T11:22:33.265Z,2.40
2019-05-11T11:26:22.527Z,2.35
2019-05-11T11:30:28.611Z,2.10
2019-05-11T11:34:33.378Z,2.12
2019-05-11T11:38:38.034Z,2.00
2019-05-11T11:42:42.911Z,2.10
2019-05-11T11:46:54.572Z,2.17
2019-05-11T11:50:54.409Z,2.42
2019-05-11T11:54:58.953Z,2.10
2019-05-11T11:59:03.486Z,2.05
2019-05-11T12:03:08.219Z,1.80
2019-05-11T12:07:12.806Z,1.85
2019-05-11T12:11:18.783Z,1.80
2019-05-11T12:19:27.877Z,1.60
2019-05-11T12:27:38.315Z,2.10
2019-05-11T12:31:43.236Z,1.40
2019-05-11T12:35:48.223Z,1.62
2019-05-11T12:39:52.969Z,1.37
2019-05-11T12:43:57.841Z,1.40
2019-05-11T12:48:02.509Z,1.60
2019-05-11T12:52:07.739Z,1.47
2019-05-11T12:56:12.434Z,1.47
2019-05-11T13:00:17.934Z,1.42
2019-05-11T13:04:22.945Z,1.32
2019-05-11T13:08:27.834Z,1.10
2019-05-11T13:12:32.482Z,1.22
2019-05-11T13:16:37.784Z,1.20
2019-05-11T13:20:42.906Z,1.17
2019-05-11T13:24:48.144Z,1.35
2019-05-11T13:28:52.869Z,1.30
2019-05-11T13:32:58.040Z,1.12
2019-05-11T13:37:03.175Z,1.30
2019-05-11T13:41:08.070Z,1.45
2019-05-11T13:45:13.162Z,1.25
2019-05-11T13:49:18.016Z,1.27
2019-05-11T13:53:22.735Z,1.30
2019-05-11T13:57:28.609Z,1.33
2019-05-11T14:01:33.323Z,1.50
2019-05-11T14:05:38.006Z,1.25
2019-05-11T14:09:42.581Z,1.40
2019-05-11T14:13:47.985Z,1.35
2019-05-11T14:18:04.667Z,1.55
2019-05-11T14:21:59.757Z,1.40
2019-05-11T14:26:04.294Z,1.50
2019-05-11T14:30:09.557Z,1.37
2019-05-11T14:34:14.141Z,1.50
2019-05-11T14:38:19.025Z,1.30
2019-05-11T14:42:23.677Z,1.40
2019-05-11T14:46:28.233Z,1.37
2019-05-11T14:50:32.757Z,1.60
2019-05-11T14:54:38.164Z,1.40
2019-05-11T14:58:43.190Z,1.32
2019-05-11T15:02:50.505Z,1.20
2019-05-11T15:06:55.057Z,1.60
2019-05-11T15:10:59.629Z,1.40
2019-05-11T15:15:07.994Z,1.12
2019-05-11T15:19:12.705Z,1.20
2019-05-11T15:23:18.120Z,1.30
2019-05-11T15:27:23.171Z,1.22
2019-05-11T15:31:27.922Z,1.47
2019-05-11T15:35:32.514Z,1.20
2019-05-11T15:39:37.869Z,1.40
2019-05-11T15:43:42.473Z,1.50
2019-05-11T15:47:48.680Z,1.20
2019-05-11T15:51:53.651Z,1.30
2019-05-11T15:55:59.870Z,1.32
2019-05-11T16:00:08.812Z,1.57
2019-05-11T16:04:12.465Z,1.60
2019-05-11T16:08:20.022Z,1.45
2019-05-11T16:12:24.553Z,1.50
2019-05-11T16:16:29.074Z,1.75
2019-05-11T16:20:36.713Z,1.70
2019-05-11T16:24:41.282Z,2.20
2019-05-11T16:28:47.749Z,3.12
2019-05-11T16:36:55.745Z,2.90
2019-05-11T16:41:00.523Z,2.85
2019-05-11T16:45:08.665Z,2.90
2019-05-11T16:49:24.829Z,3.27
2019-05-11T16:57:23.811Z,3.50
2019-05-11T17:01:28.653Z,3.55
2019-05-11T17:05:34.025Z,3.58
2019-05-11T17:09:38.817Z,3.47
2019-05-11T17:13:43.645Z,3.53
2019-05-11T17:17:49.029Z,3.30
2019-05-11T17:21:54.005Z,3.95
2019-05-11T17:25:58.553Z,3.45
2019-05-11T17:30:04.405Z,3.33
2019-05-11T17:34:09.286Z,3.10
2019-05-11T17:38:13.842Z,3.20
2019-05-11T17:42:18.375Z,3.05
2019-05-11T17:46:23.609Z,3.30
2019-05-11T17:50:28.345Z,3.30
2019-05-11T17:54:34.759Z,3.40
2019-05-11T17:58:39.283Z,3.47
2019-05-11T18:02:43.841Z,3.40
2019-05-11T18:06:48.400Z,3.27
2019-05-11T18:10:52.938Z,7.35
2019-05-11T18:14:58.587Z,4.30
2019-05-11T18:19:03.558Z,4.30
2019-05-11T18:23:08.395Z,4.08
2019-05-11T18:27:13.005Z,4.17
2019-05-11T18:31:18.102Z,4.00
2019-05-11T18:35:22.873Z,3.90
2019-05-11T18:39:28.639Z,3.60
2019-05-11T18:43:33.581Z,5.00
2019-05-11T18:47:38.387Z,4.62
2019-05-11T18:51:43.029Z,4.10
2019-05-11T18:55:48.641Z,4.37
2019-05-11T18:59:53.660Z,4.75
2019-05-11T19:04:00.142Z,3.92
2019-05-11T19:12:08.613Z,3.80
2019-05-11T19:16:13.190Z,3.42
2019-05-11T19:20:18.019Z,3.42
2019-05-11T19:28:28.093Z,4.10
2019-05-11T19:32:33.415Z,3.75
2019-05-11T19:36:38.320Z,4.00
2019-05-11T19:40:42.866Z,4.40
2019-05-11T19:44:47.889Z,4.50
2019-05-11T19:48:52.711Z,5.20
2019-05-11T19:52:57.977Z,5.55
2019-05-11T19:57:02.665Z,4.87
2019-05-11T20:01:08.640Z,5.03
2019-05-11T20:05:14.761Z,5.50
2019-05-11T20:09:20.006Z,4.50
2019-05-11T20:13:24.538Z,5.25
2019-05-11T20:17:29.074Z,5.33
2019-05-11T20:21:33.610Z,4.80
2019-05-11T20:25:38.189Z,4.67
2019-05-11T20:29:42.779Z,4.50
2019-05-11T20:33:47.717Z,4.47
2019-05-11T20:37:52.565Z,4.10
2019-05-11T20:41:58.202Z,4.80
2019-05-11T20:46:02.794Z,3.87
2019-05-11T20:50:07.999Z,3.90
2019-05-11T20:54:12.689Z,3.43
2019-05-11T20:58:18.795Z,4.00
2019-05-11T21:02:23.534Z,3.40
2019-05-11T21:06:29.550Z,3.30
2019-05-11T21:14:38.592Z,3.37
2019-05-11T21:18:43.266Z,3.33
2019-05-11T21:22:48.616Z,3.05
2019-05-11T21:26:53.681Z,3.65
2019-05-11T21:30:58.567Z,3.40
2019-05-11T21:35:03.293Z,2.95
2019-05-11T21:39:08.183Z,3.00
2019-05-11T21:43:12.690Z,3.10
2019-05-11T21:47:18.274Z,3.75
2019-05-11T21:51:23.215Z,3.77
2019-05-11T21:55:29.309Z,3.50
2019-05-11T21:59:34.055Z,3.08
2019-05-11T22:03:38.612Z,3.45
2019-05-11T22:07:43.166Z,3.17
2019-05-11T22:11:48.685Z,3.45
2019-05-11T22:15:53.361Z,3.40
2019-05-11T22:19:58.513Z,3.00
2019-05-11T22:24:03.185Z,3.67
2019-05-11T22:28:08.391Z,3.00
2019-05-11T22:32:13.480Z,3.17
2019-05-11T22:36:18.001Z,3.02
2019-05-11T22:40:22.535Z,3.30
2019-05-11T22:44:27.867Z,3.10
2019-05-11T22:48:32.930Z,2.95
2019-05-11T22:52:40.290Z,3.08
2019-05-11T22:56:44.021Z,3.10
2019-05-11T23:00:48.541Z,2.98
2019-05-11T23:04:53.064Z,2.90
2019-05-11T23:08:58.708Z,2.83
2019-05-11T23:17:08.115Z,2.80
2019-05-11T23:21:12.793Z,2.70
2019-05-11T23:25:18.441Z,2.70
2019-05-11T23:29:23.526Z,2.60
2019-05-11T23:33:28.094Z,2.77
2019-05-11T23:37:32.757Z,2.60
2019-05-11T23:41:38.052Z,2.55
2019-05-11T23:45:42.696Z,2.50
2019-05-11T23:49:47.997Z,2.58
2019-05-11T23:53:52.597Z,2.40
2019-05-11T23:57:57.645Z,2.00
